Time;durP1;ratioP1;P1;durP2;ratioP2;P2;SDS_P1;SDS_P2;PMS_P1;PMS_P2;Temp;Humidity;BMP_temperature;BMP_pressure;BME280_temperature;BME280_humidity;BME280_pressure;Samples;Min_cycle;Max_cycle;Signal;HPM_P1;HPM_P2
2022/07/15 00:02:08;;;;;;;4.00;3.83;;;;;;;15.54;95.18;65816.31;5114723;28;20234;-74
2022/07/15 00:04:35;;;;;;;6.70;3.20;;;;;;;15.48;95.38;65807.56;5114429;28;20205;-74
2022/07/15 00:07:03;;;;;;;3.33;3.27;;;;;;;15.45;95.80;65804.25;5114642;28;20177;-74
2022/07/15 00:12:15;;;;;;;5.07;4.77;;;;;;;15.35;95.94;65795.72;5114035;28;20642;-74
2022/07/15 00:14:41;;;;;;;4.00;3.70;;;;;;;15.34;95.93;65800.38;5113888;28;20204;-73
2022/07/15 00:17:08;;;;;;;3.43;3.23;;;;;;;15.17;97.18;65791.94;5114203;28;20193;-74
2022/07/15 00:19:35;;;;;;;3.57;3.30;;;;;;;15.01;98.44;65761.06;5114415;28;20272;-74
2022/07/15 00:22:01;;;;;;;3.47;3.27;;;;;;;;;;5114146;28;20587;-74
2022/07/15 00:24:29;;;;;;;11.37;4.50;;;;;;;14.89;99.73;65756.09;5114026;28;20569;-73
2022/07/15 00:26:56;;;;;;;3.77;3.57;;;;;;;14.88;99.59;65749.75;5114098;28;20242;-74
2022/07/15 00:29:23;;;;;;;4.87;4.00;;;;;;;14.82;99.67;65738.41;5113687;28;20214;-74
2022/07/15 00:31:49;;;;;;;4.10;3.90;;;;;;;14.78;99.94;65744.41;5114006;28;20206;-73
2022/07/15 00:34:16;;;;;;;3.77;3.47;;;;;;;14.82;99.41;65743.06;5113944;28;20230;-73
2022/07/15 00:36:44;;;;;;;3.60;3.40;;;;;;;14.75;99.75;65730.06;5113684;28;20185;-73
2022/07/15 00:39:10;;;;;;;3.63;3.33;;;;;;;14.67;99.88;65737.41;5113652;28;20185;-73
2022/07/15 00:41:38;;;;;;;3.83;3.53;;;;;;;14.73;99.53;65730.47;5114159;28;20193;-73
2022/07/15 00:44:05;;;;;;;3.33;3.17;;;;;;;14.65;99.79;65718.94;5113579;28;20209;-72
2022/07/15 00:46:31;;;;;;;3.80;3.70;;;;;;;14.66;99.85;65720.06;5098461;28;20197;-73
2022/07/15 00:48:59;;;;;;;3.57;3.47;;;;;;;14.72;99.39;65726.72;5099748;28;20651;-73
2022/07/15 00:51:25;;;;;;;3.03;3.03;;;;;;;14.69;99.14;65728.59;5118018;28;20193;-73
2022/07/15 00:53:54;;;;;;;5.00;3.20;;;;;;;14.69;99.03;65726.56;5117809;28;20748;-73
2022/07/15 00:56:26;;;;;;;4.00;3.80;;;;;;;14.68;98.73;65722.28;5117700;28;20548;-73
2022/07/15 00:58:53;;;;;;;3.23;3.13;;;;;;;14.68;98.54;65727.50;5099453;28;20177;-73
2022/07/15 01:01:20;;;;;;;3.33;3.03;;;;;;;14.67;98.23;65723.78;5099301;28;20662;-73
2022/07/15 01:03:48;;;;;;;2.93;2.93;;;;;;;14.67;97.86;65721.16;5117411;28;20205;-73
2022/07/15 01:06:15;;;;;;;4.20;3.80;;;;;;;14.64;97.52;65731.44;5117402;28;20200;-73
2022/07/15 01:08:41;;;;;;;3.60;3.30;;;;;;;14.61;97.48;65725.50;5099168;28;20299;-73
2022/07/15 01:11:08;;;;;;;2.80;2.80;;;;;;;;;;5118003;28;20180;-73
2022/07/15 01:13:35;;;;;;;3.50;3.20;;;;;;;14.54;97.62;65709.88;5099172;28;20296;-73
2022/07/15 01:16:03;;;;;;;3.23;3.13;;;;;;;14.50;97.82;65700.75;5099052;28;20193;-73
2022/07/15 01:18:31;;;;;;;3.13;2.90;;;;;;;14.43;98.03;65700.78;5098999;28;20259;-73
2022/07/15 01:20:57;;;;;;;2.47;2.47;;;;;;;14.37;98.20;65688.34;5099295;28;20189;-73
2022/07/15 01:23:24;;;;;;;3.97;3.87;;;;;;;14.36;98.18;65687.78;5098908;28;20592;-72
2022/07/15 01:25:59;;;;;;;3.10;2.87;;;;;;;14.37;98.23;65691.50;5098883;28;20561;-73
2022/07/15 01:28:25;;;;;;;3.13;3.03;;;;;;;14.32;98.35;65689.09;5098755;28;20185;-73
2022/07/15 01:30:53;;;;;;;3.17;2.87;;;;;;;14.26;98.57;65679.81;5098762;28;20185;-73
2022/07/15 01:33:19;;;;;;;3.30;3.10;;;;;;;14.25;98.89;65675.53;5098650;28;20217;-72
2022/07/15 01:35:46;;;;;;;3.40;3.13;;;;;;;14.21;98.74;65687.31;5116942;28;20242;-72
2022/07/15 01:38:12;;;;;;;3.00;3.00;;;;;;;14.18;98.79;65688.63;5098650;28;20197;-72
2022/07/15 01:40:39;;;;;;;3.33;3.23;;;;;;;14.13;98.92;65662.75;5098820;28;20199;-72
2022/07/15 01:43:06;;;;;;;5.03;3.27;;;;;;;14.08;99.07;65659.81;5098429;28;20718;-72
2022/07/15 01:45:33;;;;;;;4.20;3.07;;;;;;;14.08;99.18;65656.66;5116767;28;20181;-72
2022/07/15 01:47:59;;;;;;;5.20;3.03;;;;;;;14.03;99.53;65657.41;5098459;28;20197;-73
2022/07/15 01:50:46;;;;;;;11.33;3.30;;;;;;;13.94;99.87;65642.19;5098494;28;20611;-73
2022/07/15 01:53:17;;;;;;;7.00;3.47;;;;;;;13.93;100.00;65654.13;5098719;28;20587;-72
2022/07/15 01:55:43;;;;;;;3.27;3.10;;;;;;;13.91;100.00;65638.84;5098246;28;20245;-72
2022/07/15 01:58:10;;;;;;;3.30;3.20;;;;;;;13.90;100.00;65642.41;5115650;28;20717;-72
2022/07/15 02:00:37;;;;;;;2.93;2.90;;;;;;;13.88;100.00;65637.56;5116485;28;20223;-72
2022/07/15 02:03:04;;;;;;;3.93;3.73;;;;;;;;;;5098122;28;20212;-72
2022/07/15 02:05:31;;;;;;;3.43;3.33;;;;;;;13.85;100.00;65634.22;5116425;28;20193;-72
2022/07/15 02:07:57;;;;;;;3.20;3.00;;;;;;;13.85;100.00;65634.78;5098301;28;20589;-72
2022/07/15 02:10:24;;;;;;;3.47;3.17;;;;;;;13.84;100.00;65633.66;5097937;28;20219;-72
2022/07/15 02:12:52;;;;;;;3.10;3.00;;;;;;;13.81;100.00;65624.56;5097937;28;20185;-72
2022/07/15 02:15:23;;;;;;;3.53;3.23;;;;;;;13.80;100.00;65633.91;5097988;28;20189;-72
2022/07/15 02:17:54;;;;;;;3.13;2.93;;;;;;;13.70;100.00;65620.72;5097852;28;20182;-72
2022/07/15 02:20:25;;;;;;;3.60;3.50;;;;;;;13.67;100.00;65617.94;5097839;28;20596;-72
2022/07/15 02:22:57;;;;;;;3.20;3.20;;;;;;;13.65;100.00;65630.81;5097703;28;20197;-72
2022/07/15 02:25:28;;;;;;;2.60;2.60;;;;;;;13.62;100.00;65611.81;5115958;28;20269;-72
2022/07/15 02:27:57;;;;;;;3.10;3.07;;;;;;;13.59;100.00;65608.50;5097725;28;20235;-72
2022/07/15 02:30:25;;;;;;;3.03;3.03;;;;;;;13.56;100.00;65603.09;5097622;28;20577;-72
2022/07/15 02:32:51;;;;;;;5.93;3.27;;;;;;;13.44;100.00;65590.34;5097521;28;20196;-73
2022/07/15 02:35:19;;;;;;;3.67;3.57;;;;;;;13.42;100.00;65585.50;5116620;28;20193;-73
2022/07/15 02:37:46;;;;;;;3.53;3.50;;;;;;;13.27;100.00;65574.03;5116038;28;20181;-73
2022/07/15 02:40:13;;;;;;;3.47;3.20;;;;;;;13.28;100.00;65569.38;5097435;28;20601;-73
2022/07/15 02:42:47;;;;;;;4.10;4.00;;;;;;;13.17;100.00;65558.25;5098170;28;20262;-73
2022/07/15 02:45:14;;;;;;;3.63;3.37;;;;;;;13.18;100.00;65564.03;5097414;28;20661;-72
2022/07/15 02:47:41;;;;;;;3.43;3.33;;;;;;;13.10;100.00;65560.91;5097289;28;20192;-72
2022/07/15 02:50:08;;;;;;;4.50;3.20;;;;;;;13.06;100.00;65550.69;5098218;28;20562;-72
2022/07/15 02:52:36;;;;;;;4.10;3.70;;;;;;;13.04;100.00;65543.81;5097151;28;20210;-72
2022/07/15 02:55:04;;;;;;;3.67;3.57;;;;;;;13.02;100.00;65556.69;5096993;28;20236;-72
2022/07/15 02:57:31;;;;;;;4.07;3.77;;;;;;;13.00;100.00;65555.00;5097105;28;20203;-72
2022/07/15 02:59:58;;;;;;;3.17;3.17;;;;;;;12.95;100.00;65546.84;5097820;28;20181;-72
2022/07/15 03:02:25;;;;;;;3.37;3.37;;;;;;;12.98;100.00;65536.59;5097004;28;20189;-72
2022/07/15 03:04:53;;;;;;;4.00;3.70;;;;;;;12.96;100.00;65537.53;5096685;28;20225;-72
2022/07/15 03:07:20;;;;;;;3.43;3.33;;;;;;;12.86;100.00;65529.59;5097233;28;20661;-72
2022/07/15 03:09:46;;;;;;;3.10;3.10;;;;;;;12.78;100.00;65533.72;5096298;28;20223;-72
2022/07/15 03:12:13;;;;;;;4.20;3.30;;;;;;;;;;5097636;28;20196;-72
2022/07/15 03:14:41;;;;;;;3.43;3.33;;;;;;;12.69;100.00;65505.50;5096701;28;20212;-72
2022/07/15 03:17:08;;;;;;;3.27;3.23;;;;;;;12.66;100.00;65500.13;5096762;28;20197;-72
2022/07/15 03:19:35;;;;;;;4.07;3.90;;;;;;;12.66;100.00;65507.94;5096625;28;20666;-73
2022/07/15 03:22:01;;;;;;;3.60;3.60;;;;;;;12.69;100.00;65518.50;5079864;28;20192;-73
2022/07/15 03:24:31;;;;;;;3.40;3.30;;;;;;;12.65;100.00;65501.06;5096475;28;20220;-72
2022/07/15 03:26:58;;;;;;;4.23;4.20;;;;;;;12.61;100.00;65502.38;5096546;28;20247;-72
2022/07/15 03:29:28;;;;;;;5.00;3.40;;;;;;;12.60;100.00;65500.72;5096340;28;20701;-72
2022/07/15 03:31:55;;;;;;;3.33;3.17;;;;;;;12.54;100.00;65504.47;5096452;28;20191;-72
2022/07/15 03:34:25;;;;;;;3.13;3.03;;;;;;;12.49;100.00;65488.50;5096264;28;20212;-72
2022/07/15 03:36:52;;;;;;;3.87;3.60;;;;;;;12.44;100.00;65475.16;5096265;28;20199;-72
2022/07/15 03:39:21;;;;;;;3.20;3.20;;;;;;;12.39;100.00;65470.69;5096302;28;20218;-72
2022/07/15 03:41:47;;;;;;;3.67;3.40;;;;;;;12.39;100.00;65480.56;5114483;28;20185;-72
2022/07/15 03:44:14;;;;;;;7.93;3.40;;;;;;;12.38;100.00;65472.19;5096338;28;20620;-72
2022/07/15 03:46:40;;;;;;;3.13;2.93;;;;;;;12.42;100.00;65485.94;5096155;28;20184;-72
2022/07/15 03:49:07;;;;;;;3.27;3.17;;;;;;;12.39;100.00;65478.50;5114278;28;20181;-72
2022/07/15 03:51:33;;;;;;;3.10;3.10;;;;;;;12.37;100.00;65471.09;5096029;28;20196;-72
2022/07/15 03:54:02;;;;;;;3.93;3.73;;;;;;;12.32;100.00;65470.72;5096022;28;20265;-72
2022/07/15 03:56:29;;;;;;;4.03;3.93;;;;;;;12.35;100.00;65468.28;5114767;28;20233;-73
2022/07/15 03:58:56;;;;;;;5.43;4.57;;;;;;;12.23;100.00;65471.16;5095965;28;20247;-73
2022/07/15 04:01:23;;;;;;;6.20;4.50;;;;;;;12.12;100.00;65443.88;5114437;28;20652;-73
2022/07/15 04:03:50;;;;;;;4.33;4.20;;;;;;;12.08;100.00;65444.09;5114229;28;20223;-72
2022/07/15 04:06:19;;;;;;;4.13;3.83;;;;;;;12.06;100.00;65452.28;5095755;28;20198;-73
2022/07/15 04:08:46;;;;;;;4.30;3.90;;;;;;;12.10;100.00;65446.31;5095731;28;20208;-74
2022/07/15 04:11:13;;;;;;;4.40;4.00;;;;;;;12.11;100.00;65452.63;5095715;28;20216;-75
2022/07/15 04:13:41;;;;;;;4.57;4.23;;;;;;;12.12;100.00;65449.09;5095721;28;20712;-74
2022/07/15 04:16:11;;;;;;;4.20;3.80;;;;;;;12.12;100.00;65448.53;5095690;28;20659;-74
2022/07/15 04:18:37;;;;;;;8.03;3.80;;;;;;;12.14;100.00;65463.75;5095682;28;20205;-74
2022/07/15 04:21:04;;;;;;;4.43;4.00;;;;;;;12.13;100.00;65460.59;5094837;28;20661;-74
2022/07/15 04:23:31;;;;;;;3.60;3.50;;;;;;;12.16;100.00;65447.22;5113975;28;20201;-74
2022/07/15 04:25:57;;;;;;;9.47;4.43;;;;;;;12.18;100.00;65446.84;5095571;28;20196;-74
2022/07/15 04:28:24;;;;;;;4.00;3.63;;;;;;;12.17;100.00;65453.53;5095596;28;20198;-74
2022/07/15 04:30:51;;;;;;;4.63;4.43;;;;;;;12.18;100.00;65454.63;5113676;28;20205;-74
2022/07/15 04:33:19;;;;;;;4.53;4.53;;;;;;;12.19;100.00;65456.28;5095369;28;20632;-74
2022/07/15 04:35:46;;;;;;;6.63;4.67;;;;;;;12.07;100.00;65445.56;5095401;28;20230;-74
2022/07/15 04:38:14;;;;;;;6.70;4.70;;;;;;;12.16;100.00;65452.97;5095450;28;20185;-74
2022/07/15 04:40:42;;;;;;;5.47;4.37;;;;;;;;;;5095416;28;20192;-75
2022/07/15 04:43:11;;;;;;;4.77;4.33;;;;;;;12.27;100.00;65457.38;5095321;28;20232;-73
2022/07/15 04:45:40;;;;;;;5.00;4.47;;;;;;;12.26;100.00;65469.28;5095338;28;20224;-72
2022/07/15 04:50:55;;;;;;;5.30;4.97;;;;;;;12.37;100.00;65480.94;5095234;28;20214;-73
2022/07/15 04:53:25;;;;;;;4.40;4.30;;;;;;;12.42;100.00;65491.13;5095306;28;20209;-73
2022/07/15 04:55:52;;;;;;;5.73;4.53;;;;;;;12.42;100.00;65475.50;5095906;28;20189;-73
2022/07/15 04:58:19;;;;;;;5.17;4.70;;;;;;;12.45;100.00;65486.66;5095304;28;20189;-73
2022/07/15 05:00:46;;;;;;;4.47;4.17;;;;;;;12.56;100.00;65501.47;5113863;28;20596;-73
2022/07/15 05:03:14;;;;;;;5.03;4.43;;;;;;;12.73;100.00;65522.97;5095797;28;20214;-72
2022/07/15 05:05:41;;;;;;;6.43;4.73;;;;;;;12.66;100.00;65512.59;5095036;28;20193;-72
2022/07/15 05:08:10;;;;;;;4.33;4.13;;;;;;;12.63;100.00;65502.00;5095194;28;20201;-73
2022/07/15 05:10:43;;;;;;;4.60;4.40;;;;;;;12.68;100.00;65510.16;5095128;28;20227;-73
2022/07/15 05:13:10;;;;;;;5.60;4.93;;;;;;;12.79;100.00;65516.06;5113718;28;20570;-73
2022/07/15 05:15:37;;;;;;;6.63;4.43;;;;;;;12.89;100.00;65540.72;5095152;28;20193;-73
2022/07/15 05:18:25;;;;;;;4.77;4.43;;;;;;;12.96;100.00;65540.13;5112967;28;20288;-73
2022/07/15 05:20:54;;;;;;;4.13;3.90;;;;;;;12.97;100.00;65535.47;5095952;28;20569;-73
2022/07/15 05:23:23;;;;;;;5.13;4.60;;;;;;;12.93;100.00;65532.16;5094902;28;20213;-72
2022/07/15 05:25:55;;;;;;;13.53;4.13;;;;;;;12.95;100.00;65542.19;5095005;28;20731;-72
2022/07/15 05:28:21;;;;;;;5.27;4.57;;;;;;;12.95;100.00;65533.81;5094965;28;20205;-72
2022/07/15 05:30:49;;;;;;;6.13;4.67;;;;;;;12.99;100.00;65543.47;5094947;28;20697;-72
2022/07/15 05:33:16;;;;;;;5.53;4.87;;;;;;;13.01;100.00;65542.53;5099489;28;20620;-72
2022/07/15 05:35:43;;;;;;;5.97;4.10;;;;;;;13.08;100.00;65555.53;5098770;28;20250;-72
2022/07/15 05:38:18;;;;;;;5.73;4.43;;;;;;;13.17;100.00;65570.75;5098901;28;20236;-72
2022/07/15 05:40:45;;;;;;;4.27;3.87;;;;;;;13.26;100.00;65569.78;5098589;28;20239;-72
2022/07/15 05:43:13;;;;;;;4.47;4.17;;;;;;;13.26;100.00;65564.56;5098496;28;20300;-72
2022/07/15 05:45:40;;;;;;;4.57;4.20;;;;;;;13.34;100.00;65578.66;5098443;28;20197;-72
2022/07/15 05:48:08;;;;;;;4.33;4.03;;;;;;;13.35;100.00;65582.94;5098467;28;20605;-72
2022/07/15 05:50:41;;;;;;;9.67;4.13;;;;;;;13.43;100.00;65589.22;5099103;28;20215;-72
2022/07/15 05:53:10;;;;;;;3.40;3.30;;;;;;;13.49;100.00;65610.97;5098466;28;20241;-72
2022/07/15 05:55:36;;;;;;;4.23;3.90;;;;;;;13.61;100.00;65610.72;5098261;28;20689;-73
2022/07/15 05:58:07;;;;;;;4.10;3.77;;;;;;;13.64;100.00;65614.03;5098440;28;20228;-73
2022/07/15 06:00:34;;;;;;;4.03;3.70;;;;;;;13.83;100.00;65629.41;5098178;28;20246;-73
2022/07/15 06:03:01;;;;;;;5.33;3.40;;;;;;;13.84;100.00;65635.72;5098094;28;20189;-72
2022/07/15 06:05:30;;;;;;;4.03;3.90;;;;;;;13.94;100.00;65642.19;5098011;28;20721;-73
2022/07/15 06:08:00;;;;;;;4.27;3.97;;;;;;;14.08;100.00;65656.66;5098092;28;20189;-73
2022/07/15 06:10:31;;;;;;;4.37;3.33;;;;;;;14.10;100.00;65659.41;5097968;28;20603;-73
2022/07/15 06:12:57;;;;;;;3.20;3.10;;;;;;;14.27;100.00;65682.97;5098210;28;20195;-73
2022/07/15 06:15:24;;;;;;;5.33;2.93;;;;;;;14.23;100.00;65681.72;5097970;28;20688;-73
2022/07/15 06:17:51;;;;;;;7.63;3.37;;;;;;;14.36;99.85;65687.22;5116733;28;20238;-73
2022/07/15 06:20:20;;;;;;;8.70;2.77;;;;;;;14.50;100.00;65708.03;5116113;28;20188;-73
2022/07/15 06:22:46;;;;;;;4.13;3.77;;;;;;;14.58;100.00;65720.09;5097721;28;20193;-72
2022/07/15 06:25:13;;;;;;;4.83;2.80;;;;;;;14.61;95.92;65719.72;5097717;28;20200;-73
2022/07/15 06:27:42;;;;;;;2.80;2.70;;;;;;;14.59;94.53;65715.44;5097725;28;20213;-73
2022/07/15 06:30:09;;;;;;;5.20;1.93;;;;;;;14.68;93.23;65728.06;5116111;28;20217;-73
2022/07/15 06:32:36;;;;;;;3.23;1.90;;;;;;;14.66;93.39;65720.63;5115895;28;20189;-73
2022/07/15 06:35:04;;;;;;;2.33;2.23;;;;;;;14.72;94.48;65729.34;5097518;28;20209;-73
2022/07/15 06:37:31;;;;;;;2.07;2.07;;;;;;;14.75;94.45;65730.06;5097476;28;20284;-73
2022/07/15 06:39:59;;;;;;;4.90;2.70;;;;;;;14.74;95.77;65739.41;5097377;28;20601;-73
2022/07/15 06:42:25;;;;;;;3.70;3.50;;;;;;;14.83;94.68;65744.19;5097078;28;20186;-73
2022/07/15 06:45:00;;;;;;;3.07;2.73;;;;;;;;;;5097074;28;20216;-73
2022/07/15 06:47:28;;;;;;;2.90;2.57;;;;;;;14.96;91.91;65750.25;5097272;28;20586;-73
2022/07/15 06:49:57;;;;;;;2.93;2.83;;;;;;;15.10;91.93;65779.47;5097275;28;20209;-73
2022/07/15 06:52:25;;;;;;;5.17;2.57;;;;;;;15.11;92.29;65772.72;5097230;28;20189;-74
2022/07/15 06:54:53;;;;;;;2.83;2.03;;;;;;;15.14;91.56;65789.16;5097121;28;20209;-73
2022/07/15 06:57:20;;;;;;;4.33;2.20;;;;;;;15.18;90.96;65782.59;5115398;28;20189;-73
2022/07/15 06:59:46;;;;;;;2.83;2.73;;;;;;;15.10;91.00;65766.41;5115395;28;20280;-73
2022/07/15 07:02:12;;;;;;;3.33;2.30;;;;;;;15.17;91.59;65773.63;5097043;28;20599;-73
2022/07/15 07:04:42;;;;;;;4.80;2.93;;;;;;;15.20;88.55;65779.56;5096732;28;20304;-73
2022/07/15 07:07:11;;;;;;;2.07;1.97;;;;;;;15.22;89.03;65794.34;5097230;28;20189;-73
2022/07/15 07:09:37;;;;;;;2.40;2.33;;;;;;;15.21;89.59;65780.13;5115165;28;20189;-73
2022/07/15 07:12:05;;;;;;;2.50;2.30;;;;;;;15.25;90.41;65785.16;5096748;28;20620;-73
2022/07/15 07:14:31;;;;;;;3.23;2.27;;;;;;;15.32;90.37;65798.16;5115013;28;20213;-73
2022/07/15 07:16:57;;;;;;;2.30;2.20;;;;;;;15.38;90.51;65799.63;5115016;28;20185;-73
2022/07/15 07:19:24;;;;;;;3.30;2.20;;;;;;;15.56;90.12;65829.00;5115537;28;20585;-73
2022/07/15 07:21:50;;;;;;;2.47;2.07;;;;;;;15.71;90.39;65832.09;5114813;28;20239;-74
2022/07/15 07:24:17;;;;;;;2.40;2.40;;;;;;;15.70;90.56;65834.16;5115643;28;20586;-74
2022/07/15 07:26:43;;;;;;;4.30;2.77;;;;;;;15.79;90.53;65840.97;5115090;28;20242;-74
2022/07/15 07:29:12;;;;;;;2.23;2.20;;;;;;;15.86;90.18;65854.00;5115016;28;20711;-74
2022/07/15 07:31:38;;;;;;;2.73;2.63;;;;;;;15.92;89.43;65861.25;5114620;28;20205;-73
2022/07/15 07:34:05;;;;;;;5.13;2.70;;;;;;;15.94;89.80;65863.50;5114554;28;20201;-73
2022/07/15 07:36:31;;;;;;;2.87;2.77;;;;;;;15.89;88.78;65847.44;5114666;28;20181;-74
2022/07/15 07:38:57;;;;;;;4.77;2.20;;;;;;;15.81;89.74;65843.22;5114583;28;20185;-74
2022/07/15 07:41:24;;;;;;;5.63;2.23;;;;;;;15.91;89.00;65862.22;5114807;28;20185;-75
2022/07/15 07:43:50;;;;;;;2.20;1.93;;;;;;;15.84;89.74;65852.34;5114918;28;20258;-74
2022/07/15 07:46:17;;;;;;;3.33;2.03;;;;;;;15.95;90.22;65862.00;5114963;28;20178;-74
2022/07/15 07:48:44;;;;;;;5.70;2.57;;;;;;;15.99;90.82;65867.94;5114608;28;20197;-73
2022/07/15 07:51:10;;;;;;;2.27;2.27;;;;;;;;;;5114499;28;20216;-73
2022/07/15 07:53:37;;;;;;;7.70;2.93;;;;;;;16.12;89.39;65890.84;5114235;28;20205;-74
2022/07/15 07:56:03;;;;;;;3.47;2.27;;;;;;;16.03;88.99;65867.16;5114173;28;20242;-74
2022/07/15 07:58:30;;;;;;;2.43;2.30;;;;;;;16.14;89.17;65882.03;5114231;28;20193;-74
2022/07/15 08:00:57;;;;;;;2.80;2.27;;;;;;;16.19;89.56;65885.53;5114155;28;20190;-74
2022/07/15 08:03:24;;;;;;;3.03;3.03;;;;;;;16.22;88.62;65891.50;5114042;28;20620;-73
2022/07/15 08:05:53;;;;;;;2.90;2.60;;;;;;;16.33;88.90;65903.19;5114017;28;20246;-73
2022/07/15 08:08:22;;;;;;;4.63;2.70;;;;;;;16.34;87.61;65904.31;5114012;28;20189;-74
2022/07/15 08:10:52;;;;;;;2.40;2.30;;;;;;;16.33;88.33;65923.59;5113940;28;20212;-74
2022/07/15 08:13:21;;;;;;;2.30;2.30;;;;;;;16.39;88.43;65909.88;5114319;28;20299;-74
2022/07/15 08:15:48;;;;;;;2.40;2.20;;;;;;;16.47;88.61;65918.81;5114241;28;20517;-75
2022/07/15 08:18:24;;;;;;;1.70;1.70;;;;;;;16.50;83.71;65919.53;5113940;28;20188;-75
2022/07/15 08:20:51;;;;;;;2.03;1.93;;;;;;;16.37;83.99;65907.13;5113957;28;20268;-75
2022/07/15 08:23:20;;;;;;;1.70;1.70;;;;;;;16.35;84.70;65907.50;5113772;28;20253;-74
2022/07/15 08:25:49;;;;;;;2.30;2.20;;;;;;;16.38;84.93;65908.22;5114402;28;20257;-75
2022/07/15 08:28:17;;;;;;;6.90;2.23;;;;;;;16.35;84.20;65907.50;5096142;28;20615;-75
2022/07/15 08:30:43;;;;;;;2.10;2.10;;;;;;;16.48;82.82;65919.34;5113726;28;20205;-75
2022/07/15 08:33:10;;;;;;;3.23;2.50;;;;;;;16.54;82.41;65923.44;5113661;28;20201;-75
2022/07/15 08:35:36;;;;;;;2.70;2.50;;;;;;;16.54;81.78;65922.88;5113786;28;20193;-75
2022/07/15 08:38:06;;;;;;;2.17;2.07;;;;;;;16.58;81.82;65935.75;5113680;28;20185;-73
2022/07/15 08:40:33;;;;;;;3.17;2.83;;;;;;;;;;5113678;28;20585;-73
2022/07/15 08:43:00;;;;;;;3.90;2.07;;;;;;;16.80;81.54;65957.13;5114100;28;20537;-73
2022/07/15 08:45:27;;;;;;;2.23;2.23;;;;;;;16.86;82.89;65968.47;5113664;28;20189;-73
2022/07/15 08:47:55;;;;;;;1.90;1.90;;;;;;;17.04;81.81;65978.06;5113624;28;20231;-73
2022/07/15 08:50:22;;;;;;;2.37;2.17;;;;;;;16.99;80.27;65977.72;5113494;28;20185;-74
2022/07/15 08:52:51;;;;;;;2.30;2.17;;;;;;;17.07;79.03;65984.00;5113479;28;20238;-73
2022/07/15 08:55:17;;;;;;;2.07;1.80;;;;;;;16.92;79.74;65967.84;5113530;28;20266;-73
2022/07/15 08:57:46;;;;;;;3.13;2.10;;;;;;;16.93;80.28;65971.59;5113779;28;20239;-74
2022/07/15 09:00:13;;;;;;;2.13;2.03;;;;;;;16.97;80.92;65978.13;5113421;28;20714;-74
2022/07/15 09:02:40;;;;;;;2.10;2.00;;;;;;;16.98;81.42;65976.59;5113752;28;20192;-74
2022/07/15 09:05:36;;;;;;;2.10;2.10;;;;;;;;;;5113235;28;20282;-74
2022/07/15 09:08:07;;;;;;;2.57;2.40;;;;;;;17.18;78.76;65995.72;5096050;28;20629;-73
2022/07/15 09:10:55;;;;;;;2.80;2.27;;;;;;;17.23;78.28;66001.88;5117739;28;20548;-74
2022/07/15 09:13:23;;;;;;;8.13;2.37;;;;;;;;;;5117309;28;20209;-74
2022/07/15 09:15:50;;;;;;;2.30;2.20;;;;;;;17.32;77.76;66009.28;5117951;28;20689;-74
2022/07/15 09:18:19;;;;;;;7.63;2.60;;;;;;;17.50;77.21;66030.84;5117384;28;20238;-74
2022/07/15 09:20:47;;;;;;;3.90;2.10;;;;;;;17.59;76.64;66040.91;5117831;28;20213;-73
2022/07/15 09:23:20;;;;;;;2.10;2.10;;;;;;;;;;5117155;28;20220;-73
2022/07/15 09:25:49;;;;;;;1.80;1.80;;;;;;;17.61;76.44;66043.69;5117230;28;20174;-73
2022/07/15 09:28:15;;;;;;;3.80;1.80;;;;;;;17.70;78.44;66049.97;5116980;28;20193;-74
2022/07/15 09:33:39;;;;;;;2.17;2.17;;;;;;;17.67;76.22;66054.50;5117852;28;20614;-74
2022/07/15 09:36:08;;;;;;;1.90;1.83;;;;;;;17.56;77.60;66037.53;5116941;28;20177;-74
2022/07/15 09:38:59;;;;;;;3.27;2.67;;;;;;;17.55;76.66;66039.06;5116918;28;20540;-74
2022/07/15 09:41:31;;;;;;;3.80;2.13;;;;;;;17.53;78.31;66031.56;5117186;28;20169;-73
2022/07/15 09:43:59;;;;;;;2.30;2.20;;;;;;;17.66;77.99;66048.16;5117286;28;20265;-73
2022/07/15 09:46:28;;;;;;;5.03;2.30;;;;;;;;;;5117276;28;20238;-74
2022/07/15 09:48:54;;;;;;;2.10;2.00;;;;;;;;;;5116969;28;20198;-74
2022/07/15 09:51:22;;;;;;;2.00;1.90;;;;;;;17.78;76.88;66061.53;5116826;28;20235;-74
2022/07/15 09:53:50;;;;;;;2.20;2.10;;;;;;;17.88;76.91;66073.25;5116496;28;20205;-74
2022/07/15 09:56:21;;;;;;;3.17;1.93;;;;;;;;;;5117213;28;20169;-74
2022/07/15 09:58:48;;;;;;;2.07;1.93;;;;;;;17.99;74.64;66082.34;5117441;28;20511;-74
2022/07/15 10:01:15;;;;;;;2.33;2.23;;;;;;;;;;5116773;28;20697;-74
2022/07/15 10:03:41;;;;;;;3.10;1.57;;;;;;;17.90;75.14;66074.38;5116505;28;20205;-74
2022/07/15 10:06:09;;;;;;;1.50;1.50;;;;;;;;;;5116456;28;20193;-74
2022/07/15 10:08:35;;;;;;;1.57;1.57;;;;;;;17.98;73.30;66085.94;5116338;28;20215;-74
2022/07/15 10:11:09;;;;;;;1.93;1.93;;;;;;;18.11;76.29;66098.38;5116225;28;20252;-74
2022/07/15 10:13:48;;;;;;;5.57;1.80;;;;;;;18.18;74.04;66107.69;5116190;28;20213;-74
2022/07/15 10:16:38;;;;;;;2.90;1.97;;;;;;;18.05;74.34;66088.47;5116551;28;20173;-74
2022/07/15 10:19:29;;;;;;;1.87;1.87;;;;;;;18.17;76.13;66101.88;5115470;28;20205;-74
2022/07/15 10:22:18;;;;;;;1.93;1.73;;;;;;;18.35;74.95;66124.03;5116656;28;20174;-74
2022/07/15 10:25:09;;;;;;;2.30;1.70;;;;;;;18.35;74.93;66124.59;5116321;28;20213;-73
2022/07/15 10:27:45;;;;;;;1.70;1.70;;;;;;;18.22;76.40;66109.53;5116082;28;20582;-74
2022/07/15 10:30:12;;;;;;;3.90;2.10;;;;;;;;;;5116280;28;20184;-74
2022/07/15 10:33:03;;;;;;;4.23;2.20;;;;;;;18.15;76.21;66102.28;5097570;28;20217;-74
2022/07/15 10:35:51;;;;;;;2.47;2.17;;;;;;;18.41;75.51;66136.53;5115834;28;20234;-73
2022/07/15 10:38:31;;;;;;;1.80;1.80;;;;;;;18.34;73.91;66120.84;5098733;28;20573;-73
2022/07/15 10:41:16;;;;;;;3.00;1.80;;;;;;;18.32;74.80;66118.06;5116312;28;20253;-74
2022/07/15 10:43:44;;;;;;;1.87;1.87;;;;;;;18.23;74.52;66113.84;5115624;28;20617;-73
2022/07/15 10:46:17;;;;;;;1.70;1.60;;;;;;;18.38;74.73;66127.94;5115578;28;20203;-75
2022/07/15 10:48:47;;;;;;;1.60;1.60;;;;;;;18.46;73.71;66135.75;5115600;28;20558;-74
2022/07/15 10:51:36;;;;;;;2.00;1.70;;;;;;;18.77;71.61;66170.38;5115633;28;20205;-73
2022/07/15 10:54:07;;;;;;;1.97;1.97;;;;;;;18.78;71.24;66170.94;5115289;28;20205;-74
2022/07/15 10:56:40;;;;;;;2.97;2.23;;;;;;;18.89;71.17;66183.22;5115770;28;20535;-74
2022/07/15 10:59:08;;;;;;;1.63;1.53;;;;;;;18.84;71.39;66175.56;5115678;28;20223;-74
2022/07/15 11:01:39;;;;;;;5.50;1.70;;;;;;;18.64;70.36;66153.22;5115361;28;20185;-74
2022/07/15 11:04:18;;;;;;;1.93;1.83;;;;;;;;;;5115306;28;20233;-74
2022/07/15 11:07:14;;;;;;;7.27;1.60;;;;;;;;;;5115237;28;20594;-74
2022/07/15 11:09:47;;;;;;;1.40;1.40;;;;;;;18.74;66.87;66156.50;5083243;28;20574;-74
2022/07/15 11:12:14;;;;;;;3.23;1.37;;;;;;;;;;5115683;28;20280;-74
2022/07/15 11:14:52;;;;;;;1.20;1.20;;;;;;;18.93;67.15;66190.88;5114991;28;20621;-73
2022/07/15 11:17:25;;;;;;;1.67;1.63;;;;;;;19.04;66.64;66199.97;5115544;28;20590;-75
2022/07/15 11:19:54;;;;;;;1.93;1.93;;;;;;;19.20;66.20;66209.38;5115278;28;20184;-74
2022/07/15 11:22:23;;;;;;;1.27;1.27;;;;;;;19.31;64.05;66229.00;5115440;28;20181;-74
2022/07/15 11:24:50;;;;;;;1.13;1.13;;;;;;;19.32;62.54;66227.50;5114832;28;20209;-74
2022/07/15 11:27:17;;;;;;;1.40;1.40;;;;;;;19.48;64.41;66248.53;5115154;28;20226;-75
2022/07/15 11:29:47;;;;;;;1.10;1.10;;;;;;;19.59;63.84;66259.75;5114680;28;20181;-75
2022/07/15 11:32:15;;;;;;;1.27;1.17;;;;;;;19.57;62.60;66250.16;5114727;28;20258;-75
2022/07/15 11:34:47;;;;;;;1.30;1.30;;;;;;;;;;5114559;28;20256;-74
2022/07/15 11:37:18;;;;;;;1.80;1.40;;;;;;;19.31;63.36;66221.66;5115168;28;20181;-74
2022/07/15 11:39:50;;;;;;;1.17;1.17;;;;;;;19.22;63.82;66220.06;5114591;28;20620;-74
2022/07/15 11:45:07;;;;;;;1.30;1.30;;;;;;;;;;5114460;27;20205;-74
2022/07/15 11:47:34;;;;;;;1.30;1.30;;;;;;;;;;5114411;28;20185;-74
2022/07/15 11:50:04;;;;;;;1.30;1.30;;;;;;;19.37;66.10;66236.28;5114330;28;20192;-74
2022/07/15 11:52:31;;;;;;;1.20;1.20;;;;;;;19.45;64.57;66242.56;5114561;28;20663;-74
2022/07/15 11:54:58;;;;;;;2.23;1.83;;;;;;;;;;5114218;28;20209;-74
2022/07/15 11:57:25;;;;;;;1.57;1.57;;;;;;;19.71;62.39;66273.16;5114306;28;20186;-74
2022/07/15 11:59:56;;;;;;;1.40;1.40;;;;;;;19.67;61.78;66266.06;5114264;28;20189;-74
2022/07/15 12:02:25;;;;;;;1.43;1.43;;;;;;;19.69;62.41;66270.91;5114526;28;20278;-74
2022/07/15 12:05:01;;;;;;;1.97;1.50;;;;;;;19.77;61.70;66279.84;5113934;28;20690;-74